sensor_id;sensor_type;location;lat;lon;timestamp;P1;durP1;ratioP1;P2;durP2;ratioP2
61373;SDS011;47242;48.158;-1.586;2023-05-10T04:30:46;13.75;;;3.22;;
61373;SDS011;47242;48.158;-1.586;2023-05-10T04:33:12;12.98;;;2.78;;
61373;SDS011;47242;48.158;-1.586;2023-05-10T04:35:37;12.38;;;2.40;;
61373;SDS011;47242;48.158;-1.586;2023-05-10T04:38:04;10.15;;;2.80;;
61373;SDS011;47242;48.158;-1.586;2023-05-10T04:40:30;11.85;;;3.25;;
61373;SDS011;47242;48.158;-1.586;2023-05-10T04:42:56;8.73;;;2.78;;
61373;SDS011;47242;48.158;-1.586;2023-05-10T04:45:21;8.23;;;2.78;;
61373;SDS011;47242;48.158;-1.586;2023-05-10T04:47:47;11.82;;;2.22;;
61373;SDS011;47242;48.158;-1.586;2023-05-10T04:50:13;10.95;;;2.53;;
61373;SDS011;47242;48.158;-1.586;2023-05-10T04:52:38;9.60;;;1.90;;
61373;SDS011;47242;48.158;-1.586;2023-05-10T04:55:04;11.10;;;2.00;;
61373;SDS011;47242;48.158;-1.586;2023-05-10T04:57:32;10.68;;;2.25;;
61373;SDS011;47242;48.158;-1.586;2023-05-10T04:59:57;16.73;;;2.67;;
61373;SDS011;47242;48.158;-1.586;2023-05-10T05:02:24;11.70;;;2.20;;
61373;SDS011;47242;48.158;-1.586;2023-05-10T05:04:50;4.85;;;2.40;;
61373;SDS011;47242;48.158;-1.586;2023-05-10T05:07:16;12.18;;;2.55;;
61373;SDS011;47242;48.158;-1.586;2023-05-10T05:09:41;8.20;;;2.30;;
61373;SDS011;47242;48.158;-1.586;2023-05-10T05:12:07;10.02;;;2.55;;
61373;SDS011;47242;48.158;-1.586;2023-05-10T05:14:33;9.90;;;2.25;;
61373;SDS011;47242;48.158;-1.586;2023-05-10T05:16:59;13.55;;;2.53;;
61373;SDS011;47242;48.158;-1.586;2023-05-10T05:19:24;6.78;;;2.28;;
61373;SDS011;47242;48.158;-1.586;2023-05-10T05:21:50;10.75;;;2.58;;
61373;SDS011;47242;48.158;-1.586;2023-05-10T05:24:15;5.85;;;1.40;;
61373;SDS011;47242;48.158;-1.586;2023-05-10T05:26:41;9.63;;;2.55;;
61373;SDS011;47242;48.158;-1.586;2023-05-10T05:29:07;8.27;;;2.20;;
61373;SDS011;47242;48.158;-1.586;2023-05-10T05:31:32;9.38;;;2.67;;
61373;SDS011;47242;48.158;-1.586;2023-05-10T05:33:58;6.00;;;2.05;;
61373;SDS011;47242;48.158;-1.586;2023-05-10T05:36:23;12.93;;;2.70;;
61373;SDS011;47242;48.158;-1.586;2023-05-10T05:38:49;11.65;;;2.65;;
61373;SDS011;47242;48.158;-1.586;2023-05-10T05:41:15;8.82;;;2.55;;
61373;SDS011;47242;48.158;-1.586;2023-05-10T05:43:40;6.00;;;2.05;;
61373;SDS011;47242;48.158;-1.586;2023-05-10T05:46:06;11.60;;;2.63;;
61373;SDS011;47242;48.158;-1.586;2023-05-10T05:48:32;8.35;;;1.92;;
61373;SDS011;47242;48.158;-1.586;2023-05-10T05:50:57;12.57;;;3.10;;
61373;SDS011;47242;48.158;-1.586;2023-05-10T05:53:23;8.32;;;2.38;;
61373;SDS011;47242;48.158;-1.586;2023-05-10T05:55:55;8.52;;;2.47;;
61373;SDS011;47242;48.158;-1.586;2023-05-10T05:58:22;11.07;;;2.50;;
61373;SDS011;47242;48.158;-1.586;2023-05-10T06:00:48;10.82;;;2.17;;
61373;SDS011;47242;48.158;-1.586;2023-05-10T06:03:14;18.25;;;3.40;;
61373;SDS011;47242;48.158;-1.586;2023-05-10T06:05:40;8.25;;;2.15;;
61373;SDS011;47242;48.158;-1.586;2023-05-10T06:08:08;14.02;;;2.30;;
61373;SDS011;47242;48.158;-1.586;2023-05-10T06:10:34;13.25;;;2.67;;
61373;SDS011;47242;48.158;-1.586;2023-05-10T06:13:03;8.23;;;2.28;;
61373;SDS011;47242;48.158;-1.586;2023-05-10T06:15:29;9.20;;;2.17;;
61373;SDS011;47242;48.158;-1.586;2023-05-10T06:17:57;8.75;;;1.83;;
61373;SDS011;47242;48.158;-1.586;2023-05-10T06:20:23;14.75;;;2.92;;
61373;SDS011;47242;48.158;-1.586;2023-05-10T06:22:49;7.03;;;1.95;;
61373;SDS011;47242;48.158;-1.586;2023-05-10T06:25:14;10.20;;;2.40;;
61373;SDS011;47242;48.158;-1.586;2023-05-10T06:27:42;8.82;;;2.90;;
61373;SDS011;47242;48.158;-1.586;2023-05-10T06:30:08;11.88;;;2.50;;
61373;SDS011;47242;48.158;-1.586;2023-05-10T06:32:35;16.50;;;2.70;;
61373;SDS011;47242;48.158;-1.586;2023-05-10T06:35:00;6.55;;;2.22;;
61373;SDS011;47242;48.158;-1.586;2023-05-10T06:37:26;10.18;;;2.58;;
61373;SDS011;47242;48.158;-1.586;2023-05-10T06:39:51;6.40;;;1.90;;
61373;SDS011;47242;48.158;-1.586;2023-05-10T06:42:17;11.55;;;2.35;;
61373;SDS011;47242;48.158;-1.586;2023-05-10T06:44:43;14.35;;;2.85;;
61373;SDS011;47242;48.158;-1.586;2023-05-10T06:47:08;9.10;;;1.95;;
61373;SDS011;47242;48.158;-1.586;2023-05-10T06:49:34;8.90;;;2.85;;
61373;SDS011;47242;48.158;-1.586;2023-05-10T06:52:00;5.63;;;1.52;;
61373;SDS011;47242;48.158;-1.586;2023-05-10T06:54:26;9.20;;;2.25;;
61373;SDS011;47242;48.158;-1.586;2023-05-10T06:56:51;8.43;;;1.90;;
61373;SDS011;47242;48.158;-1.586;2023-05-10T06:59:17;9.15;;;1.90;;
61373;SDS011;47242;48.158;-1.586;2023-05-10T07:01:44;12.63;;;2.03;;
61373;SDS011;47242;48.158;-1.586;2023-05-10T07:04:09;9.95;;;1.92;;
61373;SDS011;47242;48.158;-1.586;2023-05-10T07:06:35;9.63;;;2.28;;
61373;SDS011;47242;48.158;-1.586;2023-05-10T07:09:01;9.18;;;2.42;;
61373;SDS011;47242;48.158;-1.586;2023-05-10T07:11:27;10.82;;;2.55;;
61373;SDS011;47242;48.158;-1.586;2023-05-10T07:13:52;9.98;;;2.63;;
61373;SDS011;47242;48.158;-1.586;2023-05-10T07:16:18;7.40;;;2.70;;
61373;SDS011;47242;48.158;-1.586;2023-05-10T07:18:43;6.25;;;1.58;;
61373;SDS011;47242;48.158;-1.586;2023-05-10T07:21:09;13.00;;;2.05;;
61373;SDS011;47242;48.158;-1.586;2023-05-10T07:23:35;11.10;;;2.38;;
61373;SDS011;47242;48.158;-1.586;2023-05-10T07:26:01;11.57;;;2.15;;
61373;SDS011;47242;48.158;-1.586;2023-05-10T07:28:27;10.82;;;2.67;;
61373;SDS011;47242;48.158;-1.586;2023-05-10T07:30:52;8.80;;;2.00;;
61373;SDS011;47242;48.158;-1.586;2023-05-10T07:33:18;9.63;;;1.75;;
61373;SDS011;47242;48.158;-1.586;2023-05-10T07:35:44;7.05;;;2.03;;
61373;SDS011;47242;48.158;-1.586;2023-05-10T07:38:09;8.65;;;2.60;;
61373;SDS011;47242;48.158;-1.586;2023-05-10T07:40:38;6.18;;;1.88;;
61373;SDS011;47242;48.158;-1.586;2023-05-10T07:43:04;13.50;;;2.13;;
61373;SDS011;47242;48.158;-1.586;2023-05-10T07:45:30;9.55;;;2.08;;
61373;SDS011;47242;48.158;-1.586;2023-05-10T07:47:55;10.55;;;1.90;;
61373;SDS011;47242;48.158;-1.586;2023-05-10T07:50:21;7.55;;;1.80;;
61373;SDS011;47242;48.158;-1.586;2023-05-10T07:52:47;11.75;;;2.70;;
61373;SDS011;47242;48.158;-1.586;2023-05-10T07:55:13;10.10;;;2.33;;
61373;SDS011;47242;48.158;-1.586;2023-05-10T07:57:39;9.85;;;1.88;;
61373;SDS011;47242;48.158;-1.586;2023-05-10T08:00:05;8.00;;;1.77;;
61373;SDS011;47242;48.158;-1.586;2023-05-10T08:02:32;9.00;;;1.80;;
61373;SDS011;47242;48.158;-1.586;2023-05-10T08:05:00;6.72;;;1.67;;
61373;SDS011;47242;48.158;-1.586;2023-05-10T08:07:25;7.35;;;1.65;;
61373;SDS011;47242;48.158;-1.586;2023-05-10T08:09:51;6.32;;;1.70;;
61373;SDS011;47242;48.158;-1.586;2023-05-10T08:12:16;6.43;;;2.20;;
61373;SDS011;47242;48.158;-1.586;2023-05-10T08:14:42;8.23;;;2.00;;
61373;SDS011;47242;48.158;-1.586;2023-05-10T08:17:08;9.88;;;2.33;;
61373;SDS011;47242;48.158;-1.586;2023-05-10T08:19:33;5.97;;;2.08;;
61373;SDS011;47242;48.158;-1.586;2023-05-10T08:21:59;6.03;;;1.80;;
61373;SDS011;47242;48.158;-1.586;2023-05-10T08:24:25;8.07;;;1.92;;
61373;SDS011;47242;48.158;-1.586;2023-05-10T08:26:51;8.57;;;2.45;;
61373;SDS011;47242;48.158;-1.586;2023-05-10T08:29:16;7.70;;;2.22;;
61373;SDS011;47242;48.158;-1.586;2023-05-10T08:31:42;6.32;;;2.00;;
61373;SDS011;47242;48.158;-1.586;2023-05-10T08:34:08;8.95;;;2.03;;
61373;SDS011;47242;48.158;-1.586;2023-05-10T08:36:33;8.10;;;2.22;;
61373;SDS011;47242;48.158;-1.586;2023-05-10T08:38:59;10.63;;;2.10;;
61373;SDS011;47242;48.158;-1.586;2023-05-10T08:41:25;12.85;;;2.00;;
61373;SDS011;47242;48.158;-1.586;2023-05-10T08:43:52;8.27;;;1.95;;
61373;SDS011;47242;48.158;-1.586;2023-05-10T08:46:20;10.30;;;2.30;;
61373;SDS011;47242;48.158;-1.586;2023-05-10T08:48:48;8.02;;;1.80;;
61373;SDS011;47242;48.158;-1.586;2023-05-10T08:51:16;11.70;;;2.67;;
61373;SDS011;47242;48.158;-1.586;2023-05-10T08:53:44;9.00;;;2.05;;
61373;SDS011;47242;48.158;-1.586;2023-05-10T08:56:10;14.48;;;2.50;;
61373;SDS011;47242;48.158;-1.586;2023-05-10T08:58:37;8.95;;;2.28;;
61373;SDS011;47242;48.158;-1.586;2023-05-10T09:01:03;11.68;;;2.45;;
61373;SDS011;47242;48.158;-1.586;2023-05-10T09:03:30;5.72;;;2.00;;
61373;SDS011;47242;48.158;-1.586;2023-05-10T09:05:57;11.32;;;1.88;;
61373;SDS011;47242;48.158;-1.586;2023-05-10T09:08:23;11.30;;;1.92;;
61373;SDS011;47242;48.158;-1.586;2023-05-10T09:10:51;4.65;;;1.40;;
61373;SDS011;47242;48.158;-1.586;2023-05-10T09:13:17;9.20;;;1.80;;
61373;SDS011;47242;48.158;-1.586;2023-05-10T09:15:44;6.07;;;2.10;;
61373;SDS011;47242;48.158;-1.586;2023-05-10T09:18:10;7.10;;;1.67;;
61373;SDS011;47242;48.158;-1.586;2023-05-10T09:20:36;4.53;;;1.80;;
61373;SDS011;47242;48.158;-1.586;2023-05-10T09:23:02;8.40;;;2.10;;
61373;SDS011;47242;48.158;-1.586;2023-05-10T09:25:28;8.48;;;2.05;;
61373;SDS011;47242;48.158;-1.586;2023-05-10T09:27:53;6.63;;;1.70;;
61373;SDS011;47242;48.158;-1.586;2023-05-10T09:30:23;4.38;;;1.50;;
61373;SDS011;47242;48.158;-1.586;2023-05-10T09:32:56;9.05;;;2.17;;
61373;SDS011;47242;48.158;-1.586;2023-05-10T09:35:24;9.48;;;2.42;;
61373;SDS011;47242;48.158;-1.586;2023-05-10T09:37:52;6.90;;;1.73;;
61373;SDS011;47242;48.158;-1.586;2023-05-10T09:40:20;9.18;;;1.95;;
61373;SDS011;47242;48.158;-1.586;2023-05-10T09:43:21;5.32;;;2.25;;
61373;SDS011;47242;48.158;-1.586;2023-05-10T09:45:40;6.28;;;1.60;;
61373;SDS011;47242;48.158;-1.586;2023-05-10T09:48:06;3.40;;;1.35;;
61373;SDS011;47242;48.158;-1.586;2023-05-10T09:50:32;4.05;;;1.38;;
61373;SDS011;47242;48.158;-1.586;2023-05-10T09:52:59;4.00;;;1.30;;
61373;SDS011;47242;48.158;-1.586;2023-05-10T09:55:43;6.60;;;1.58;;
61373;SDS011;47242;48.158;-1.586;2023-05-10T09:58:11;6.40;;;1.55;;
61373;SDS011;47242;48.158;-1.586;2023-05-10T10:00:40;6.05;;;1.58;;
61373;SDS011;47242;48.158;-1.586;2023-05-10T10:03:17;4.35;;;1.60;;
61373;SDS011;47242;48.158;-1.586;2023-05-10T10:05:46;5.47;;;1.50;;
61373;SDS011;47242;48.158;-1.586;2023-05-10T10:08:12;5.82;;;1.50;;
61373;SDS011;47242;48.158;-1.586;2023-05-10T10:10:39;7.72;;;1.40;;
61373;SDS011;47242;48.158;-1.586;2023-05-10T10:13:05;5.38;;;1.60;;
61373;SDS011;47242;48.158;-1.586;2023-05-10T10:15:31;7.80;;;1.73;;
61373;SDS011;47242;48.158;-1.586;2023-05-10T10:17:58;7.40;;;1.70;;
61373;SDS011;47242;48.158;-1.586;2023-05-10T10:20:25;5.65;;;1.55;;
61373;SDS011;47242;48.158;-1.586;2023-05-10T10:22:52;4.35;;;1.70;;
61373;SDS011;47242;48.158;-1.586;2023-05-10T10:25:18;5.45;;;1.70;;
61373;SDS011;47242;48.158;-1.586;2023-05-10T10:35:51;5.43;;;1.50;;
61373;SDS011;47242;48.158;-1.586;2023-05-10T10:38:18;4.35;;;1.83;;
61373;SDS011;47242;48.158;-1.586;2023-05-10T10:40:43;3.42;;;1.40;;
61373;SDS011;47242;48.158;-1.586;2023-05-10T10:43:28;7.75;;;1.45;;
61373;SDS011;47242;48.158;-1.586;2023-05-10T10:49:15;2.90;;;0.90;;
61373;SDS011;47242;48.158;-1.586;2023-05-10T10:51:38;7.28;;;1.33;;
61373;SDS011;47242;48.158;-1.586;2023-05-10T10:54:10;6.22;;;1.20;;
61373;SDS011;47242;48.158;-1.586;2023-05-10T10:56:36;3.83;;;1.33;;
61373;SDS011;47242;48.158;-1.586;2023-05-10T10:59:02;8.30;;;1.15;;
61373;SDS011;47242;48.158;-1.586;2023-05-10T11:01:32;3.65;;;1.40;;
61373;SDS011;47242;48.158;-1.586;2023-05-10T11:06:32;4.45;;;1.50;;
61373;SDS011;47242;48.158;-1.586;2023-05-10T11:08:59;2.97;;;1.83;;
61373;SDS011;47242;48.158;-1.586;2023-05-10T11:11:34;10.95;;;2.17;;
61373;SDS011;47242;48.158;-1.586;2023-05-10T11:14:04;5.95;;;1.27;;
61373;SDS011;47242;48.158;-1.586;2023-05-10T11:16:41;4.18;;;0.93;;
61373;SDS011;47242;48.158;-1.586;2023-05-10T11:19:09;3.22;;;1.30;;
61373;SDS011;47242;48.158;-1.586;2023-05-10T11:21:49;5.80;;;1.42;;
61373;SDS011;47242;48.158;-1.586;2023-05-10T11:24:19;3.25;;;1.08;;
61373;SDS011;47242;48.158;-1.586;2023-05-10T11:26:52;2.85;;;0.90;;
61373;SDS011;47242;48.158;-1.586;2023-05-10T11:29:18;3.33;;;1.17;;
61373;SDS011;47242;48.158;-1.586;2023-05-10T11:31:45;3.35;;;0.90;;
61373;SDS011;47242;48.158;-1.586;2023-05-10T11:34:12;2.25;;;0.85;;
61373;SDS011;47242;48.158;-1.586;2023-05-10T11:36:52;2.67;;;1.00;;
61373;SDS011;47242;48.158;-1.586;2023-05-10T11:39:19;3.20;;;1.10;;
61373;SDS011;47242;48.158;-1.586;2023-05-10T11:41:48;4.88;;;0.98;;
61373;SDS011;47242;48.158;-1.586;2023-05-10T11:44:14;2.75;;;1.10;;
61373;SDS011;47242;48.158;-1.586;2023-05-10T11:46:40;3.88;;;1.17;;
61373;SDS011;47242;48.158;-1.586;2023-05-10T11:49:06;2.35;;;0.80;;
61373;SDS011;47242;48.158;-1.586;2023-05-10T11:51:33;4.72;;;0.80;;
61373;SDS011;47242;48.158;-1.586;2023-05-10T11:54:00;4.05;;;0.98;;
61373;SDS011;47242;48.158;-1.586;2023-05-10T11:56:27;4.70;;;1.23;;
61373;SDS011;47242;48.158;-1.586;2023-05-10T11:58:54;4.88;;;1.65;;
61373;SDS011;47242;48.158;-1.586;2023-05-10T12:01:20;4.30;;;1.02;;
61373;SDS011;47242;48.158;-1.586;2023-05-10T12:03:47;3.17;;;0.90;;
61373;SDS011;47242;48.158;-1.586;2023-05-10T12:06:21;4.05;;;1.20;;
61373;SDS011;47242;48.158;-1.586;2023-05-10T12:08:47;3.92;;;0.85;;
61373;SDS011;47242;48.158;-1.586;2023-05-10T12:11:17;2.63;;;0.95;;
61373;SDS011;47242;48.158;-1.586;2023-05-10T12:13:43;3.72;;;1.00;;
61373;SDS011;47242;48.158;-1.586;2023-05-10T12:16:15;2.95;;;0.82;;
61373;SDS011;47242;48.158;-1.586;2023-05-10T12:18:41;2.30;;;0.70;;
61373;SDS011;47242;48.158;-1.586;2023-05-10T12:21:09;2.78;;;0.70;;
61373;SDS011;47242;48.158;-1.586;2023-05-10T12:23:36;3.33;;;1.02;;
61373;SDS011;47242;48.158;-1.586;2023-05-10T12:26:02;8.63;;;1.00;;
61373;SDS011;47242;48.158;-1.586;2023-05-10T12:28:32;4.78;;;1.33;;
61373;SDS011;47242;48.158;-1.586;2023-05-10T12:30:58;3.80;;;0.90;;
61373;SDS011;47242;48.158;-1.586;2023-05-10T12:33:24;2.10;;;0.75;;
61373;SDS011;47242;48.158;-1.586;2023-05-10T12:35:52;6.30;;;1.48;;
61373;SDS011;47242;48.158;-1.586;2023-05-10T12:38:25;3.38;;;1.00;;
61373;SDS011;47242;48.158;-1.586;2023-05-10T12:41:03;5.38;;;1.30;;
61373;SDS011;47242;48.158;-1.586;2023-05-10T12:43:32;3.60;;;1.20;;
61373;SDS011;47242;48.158;-1.586;2023-05-10T12:45:58;6.13;;;1.52;;
61373;SDS011;47242;48.158;-1.586;2023-05-10T12:48:34;5.15;;;1.58;;
61373;SDS011;47242;48.158;-1.586;2023-05-10T12:51:01;3.42;;;1.08;;
61373;SDS011;47242;48.158;-1.586;2023-05-10T12:53:27;2.83;;;1.20;;
61373;SDS011;47242;48.158;-1.586;2023-05-10T12:55:53;5.47;;;1.30;;
61373;SDS011;47242;48.158;-1.586;2023-05-10T12:58:18;3.92;;;1.20;;
61373;SDS011;47242;48.158;-1.586;2023-05-10T13:00:45;4.13;;;1.08;;
61373;SDS011;47242;48.158;-1.586;2023-05-10T13:03:10;2.30;;;1.00;;
61373;SDS011;47242;48.158;-1.586;2023-05-10T13:05:36;6.97;;;1.50;;
61373;SDS011;47242;48.158;-1.586;2023-05-10T13:08:02;3.30;;;1.10;;
61373;SDS011;47242;48.158;-1.586;2023-05-10T13:10:29;2.40;;;0.98;;
61373;SDS011;47242;48.158;-1.586;2023-05-10T13:12:55;3.53;;;0.90;;
61373;SDS011;47242;48.158;-1.586;2023-05-10T13:15:22;3.13;;;1.13;;
61373;SDS011;47242;48.158;-1.586;2023-05-10T13:17:47;3.70;;;0.90;;
61373;SDS011;47242;48.158;-1.586;2023-05-10T13:20:13;5.13;;;1.20;;
61373;SDS011;47242;48.158;-1.586;2023-05-10T13:22:39;5.40;;;1.30;;
61373;SDS011;47242;48.158;-1.586;2023-05-10T13:25:06;3.35;;;1.83;;
61373;SDS011;47242;48.158;-1.586;2023-05-10T13:27:32;4.82;;;1.48;;
61373;SDS011;47242;48.158;-1.586;2023-05-10T13:29:57;4.43;;;1.08;;
61373;SDS011;47242;48.158;-1.586;2023-05-10T13:32:24;3.42;;;1.50;;
61373;SDS011;47242;48.158;-1.586;2023-05-10T13:34:50;6.65;;;1.63;;
61373;SDS011;47242;48.158;-1.586;2023-05-10T13:37:16;1.77;;;0.82;;
61373;SDS011;47242;48.158;-1.586;2023-05-10T13:39:42;3.40;;;1.05;;
61373;SDS011;47242;48.158;-1.586;2023-05-10T13:42:08;5.82;;;1.20;;
61373;SDS011;47242;48.158;-1.586;2023-05-10T13:44:36;5.47;;;1.30;;
61373;SDS011;47242;48.158;-1.586;2023-05-10T13:47:03;6.30;;;1.30;;
61373;SDS011;47242;48.158;-1.586;2023-05-10T13:49:29;6.28;;;1.65;;
61373;SDS011;47242;48.158;-1.586;2023-05-10T13:51:55;5.18;;;1.33;;
61373;SDS011;47242;48.158;-1.586;2023-05-10T13:54:20;2.80;;;1.15;;
61373;SDS011;47242;48.158;-1.586;2023-05-10T13:56:47;4.95;;;2.17;;
61373;SDS011;47242;48.158;-1.586;2023-05-10T13:59:13;2.88;;;1.15;;
61373;SDS011;47242;48.158;-1.586;2023-05-10T14:01:42;4.60;;;0.90;;
61373;SDS011;47242;48.158;-1.586;2023-05-10T14:04:08;1.63;;;0.90;;
61373;SDS011;47242;48.158;-1.586;2023-05-10T14:06:38;2.03;;;0.70;;
61373;SDS011;47242;48.158;-1.586;2023-05-10T14:09:03;2.45;;;1.25;;
61373;SDS011;47242;48.158;-1.586;2023-05-10T14:11:29;2.17;;;0.80;;
61373;SDS011;47242;48.158;-1.586;2023-05-10T14:13:55;1.25;;;0.52;;
61373;SDS011;47242;48.158;-1.586;2023-05-10T14:16:20;2.85;;;0.82;;
61373;SDS011;47242;48.158;-1.586;2023-05-10T14:18:46;2.90;;;0.85;;
61373;SDS011;47242;48.158;-1.586;2023-05-10T14:21:12;2.88;;;0.70;;
61373;SDS011;47242;48.158;-1.586;2023-05-10T14:23:38;1.92;;;0.80;;
61373;SDS011;47242;48.158;-1.586;2023-05-10T14:26:03;3.47;;;0.90;;
61373;SDS011;47242;48.158;-1.586;2023-05-10T14:28:29;3.28;;;1.02;;
61373;SDS011;47242;48.158;-1.586;2023-05-10T14:30:55;3.33;;;1.10;;
61373;SDS011;47242;48.158;-1.586;2023-05-10T14:33:21;3.55;;;0.82;;
61373;SDS011;47242;48.158;-1.586;2023-05-10T14:35:47;2.75;;;0.90;;
61373;SDS011;47242;48.158;-1.586;2023-05-10T14:38:13;2.17;;;0.80;;
61373;SDS011;47242;48.158;-1.586;2023-05-10T14:40:39;2.28;;;0.90;;
61373;SDS011;47242;48.158;-1.586;2023-05-10T14:43:04;1.67;;;0.50;;
61373;SDS011;47242;48.158;-1.586;2023-05-10T14:45:30;2.45;;;0.95;;
61373;SDS011;47242;48.158;-1.586;2023-05-10T14:47:56;2.80;;;1.00;;
61373;SDS011;47242;48.158;-1.586;2023-05-10T14:50:22;1.98;;;0.82;;
61373;SDS011;47242;48.158;-1.586;2023-05-10T14:52:48;2.15;;;1.13;;
61373;SDS011;47242;48.158;-1.586;2023-05-10T14:55:14;3.13;;;1.00;;
61373;SDS011;47242;48.158;-1.586;2023-05-10T14:57:40;3.90;;;1.00;;
61373;SDS011;47242;48.158;-1.586;2023-05-10T15:00:06;2.28;;;1.17;;
61373;SDS011;47242;48.158;-1.586;2023-05-10T15:02:32;3.55;;;1.13;;
61373;SDS011;47242;48.158;-1.586;2023-05-10T15:04:57;4.32;;;1.10;;
61373;SDS011;47242;48.158;-1.586;2023-05-10T15:07:23;4.22;;;1.50;;
61373;SDS011;47242;48.158;-1.586;2023-05-10T15:09:49;3.83;;;1.30;;
61373;SDS011;47242;48.158;-1.586;2023-05-10T15:12:17;5.43;;;1.20;;
61373;SDS011;47242;48.158;-1.586;2023-05-10T15:14:43;2.88;;;1.20;;
61373;SDS011;47242;48.158;-1.586;2023-05-10T15:17:09;3.92;;;1.10;;
61373;SDS011;47242;48.158;-1.586;2023-05-10T15:19:35;5.78;;;1.27;;
61373;SDS011;47242;48.158;-1.586;2023-05-10T15:22:01;6.30;;;1.10;;
61373;SDS011;47242;48.158;-1.586;2023-05-10T15:24:27;3.38;;;1.00;;
61373;SDS011;47242;48.158;-1.586;2023-05-10T15:26:53;5.40;;;1.30;;
61373;SDS011;47242;48.158;-1.586;2023-05-10T15:29:18;5.95;;;0.90;;
61373;SDS011;47242;48.158;-1.586;2023-05-10T15:31:48;2.28;;;1.10;;
61373;SDS011;47242;48.158;-1.586;2023-05-10T15:34:15;4.78;;;0.80;;
61373;SDS011;47242;48.158;-1.586;2023-05-10T15:36:41;3.15;;;1.02;;
61373;SDS011;47242;48.158;-1.586;2023-05-10T15:39:07;2.97;;;0.93;;
61373;SDS011;47242;48.158;-1.586;2023-05-10T15:41:34;4.63;;;1.30;;
61373;SDS011;47242;48.158;-1.586;2023-05-10T15:44:00;3.55;;;0.90;;
61373;SDS011;47242;48.158;-1.586;2023-05-10T15:46:26;5.30;;;1.08;;
61373;SDS011;47242;48.158;-1.586;2023-05-10T15:49:03;4.00;;;1.48;;
61373;SDS011;47242;48.158;-1.586;2023-05-10T15:51:29;4.72;;;0.85;;
61373;SDS011;47242;48.158;-1.586;2023-05-10T15:53:54;4.05;;;0.90;;
61373;SDS011;47242;48.158;-1.586;2023-05-10T15:56:20;7.35;;;1.02;;
61373;SDS011;47242;48.158;-1.586;2023-05-10T15:58:53;7.05;;;1.05;;
61373;SDS011;47242;48.158;-1.586;2023-05-10T16:01:18;5.15;;;0.90;;
61373;SDS011;47242;48.158;-1.586;2023-05-10T16:03:44;5.45;;;1.13;;
61373;SDS011;47242;48.158;-1.586;2023-05-10T16:06:10;2.33;;;0.70;;
61373;SDS011;47242;48.158;-1.586;2023-05-10T16:08:36;5.57;;;1.23;;
61373;SDS011;47242;48.158;-1.586;2023-05-10T16:11:01;4.13;;;1.27;;
61373;SDS011;47242;48.158;-1.586;2023-05-10T16:13:27;6.03;;;1.50;;
61373;SDS011;47242;48.158;-1.586;2023-05-10T16:15:53;3.70;;;1.10;;
61373;SDS011;47242;48.158;-1.586;2023-05-10T16:18:19;3.55;;;1.27;;
61373;SDS011;47242;48.158;-1.586;2023-05-10T16:20:45;5.45;;;1.42;;
61373;SDS011;47242;48.158;-1.586;2023-05-10T16:23:11;3.15;;;1.50;;
61373;SDS011;47242;48.158;-1.586;2023-05-10T16:25:38;4.53;;;1.27;;
61373;SDS011;47242;48.158;-1.586;2023-05-10T16:28:03;2.92;;;1.10;;
61373;SDS011;47242;48.158;-1.586;2023-05-10T16:30:29;7.00;;;1.20;;
61373;SDS011;47242;48.158;-1.586;2023-05-10T16:32:55;4.78;;;1.30;;
61373;SDS011;47242;48.158;-1.586;2023-05-10T16:35:21;5.70;;;1.33;;
61373;SDS011;47242;48.158;-1.586;2023-05-10T16:37:48;4.05;;;0.95;;
61373;SDS011;47242;48.158;-1.586;2023-05-10T16:40:17;4.77;;;1.10;;
61373;SDS011;47242;48.158;-1.586;2023-05-10T16:42:43;3.58;;;1.20;;
61373;SDS011;47242;48.158;-1.586;2023-05-10T16:45:09;8.77;;;1.65;;
61373;SDS011;47242;48.158;-1.586;2023-05-10T16:47:35;5.32;;;1.23;;
61373;SDS011;47242;48.158;-1.586;2023-05-10T16:50:02;8.68;;;1.42;;
61373;SDS011;47242;48.158;-1.586;2023-05-10T16:52:29;7.15;;;1.08;;
61373;SDS011;47242;48.158;-1.586;2023-05-10T16:54:56;4.95;;;1.60;;
61373;SDS011;47242;48.158;-1.586;2023-05-10T16:57:22;6.15;;;1.15;;
61373;SDS011;47242;48.158;-1.586;2023-05-10T16:59:48;9.15;;;1.40;;
61373;SDS011;47242;48.158;-1.586;2023-05-10T17:02:17;5.13;;;1.80;;
61373;SDS011;47242;48.158;-1.586;2023-05-10T17:04:43;5.75;;;1.27;;
61373;SDS011;47242;48.158;-1.586;2023-05-10T17:07:09;7.50;;;1.17;;
61373;SDS011;47242;48.158;-1.586;2023-05-10T17:09:35;3.97;;;1.05;;
61373;SDS011;47242;48.158;-1.586;2023-05-10T17:12:01;6.82;;;1.33;;
61373;SDS011;47242;48.158;-1.586;2023-05-10T17:14:27;6.72;;;1.50;;
61373;SDS011;47242;48.158;-1.586;2023-05-10T17:16:53;6.07;;;1.08;;
61373;SDS011;47242;48.158;-1.586;2023-05-10T17:19:19;5.88;;;1.50;;
61373;SDS011;47242;48.158;-1.586;2023-05-10T17:21:45;6.65;;;1.77;;
61373;SDS011;47242;48.158;-1.586;2023-05-10T17:24:11;6.03;;;1.30;;
61373;SDS011;47242;48.158;-1.586;2023-05-10T17:26:37;6.25;;;1.50;;
61373;SDS011;47242;48.158;-1.586;2023-05-10T17:29:03;3.17;;;1.23;;
61373;SDS011;47242;48.158;-1.586;2023-05-10T17:31:28;6.93;;;1.55;;
61373;SDS011;47242;48.158;-1.586;2023-05-10T17:33:54;4.78;;;1.77;;
61373;SDS011;47242;48.158;-1.586;2023-05-10T17:36:20;6.03;;;1.45;;
61373;SDS011;47242;48.158;-1.586;2023-05-10T17:38:52;8.88;;;1.90;;
61373;SDS011;47242;48.158;-1.586;2023-05-10T17:41:21;8.23;;;2.03;;
61373;SDS011;47242;48.158;-1.586;2023-05-10T17:43:47;4.50;;;1.40;;
61373;SDS011;47242;48.158;-1.586;2023-05-10T17:46:12;5.78;;;2.10;;
61373;SDS011;47242;48.158;-1.586;2023-05-10T17:48:38;5.25;;;1.58;;
61373;SDS011;47242;48.158;-1.586;2023-05-10T17:51:07;3.17;;;1.30;;
61373;SDS011;47242;48.158;-1.586;2023-05-10T17:53:33;5.75;;;1.40;;
61373;SDS011;47242;48.158;-1.586;2023-05-10T17:56:02;4.75;;;1.27;;
61373;SDS011;47242;48.158;-1.586;2023-05-10T17:58:27;8.25;;;1.50;;
61373;SDS011;47242;48.158;-1.586;2023-05-10T18:00:54;4.80;;;1.45;;
61373;SDS011;47242;48.158;-1.586;2023-05-10T18:03:21;4.65;;;1.23;;
61373;SDS011;47242;48.158;-1.586;2023-05-10T18:05:47;4.18;;;1.02;;
61373;SDS011;47242;48.158;-1.586;2023-05-10T18:08:13;6.15;;;1.30;;
61373;SDS011;47242;48.158;-1.586;2023-05-10T18:10:39;3.45;;;1.02;;
61373;SDS011;47242;48.158;-1.586;2023-05-10T18:13:05;7.07;;;1.42;;
61373;SDS011;47242;48.158;-1.586;2023-05-10T18:15:31;7.82;;;1.40;;
61373;SDS011;47242;48.158;-1.586;2023-05-10T18:18:00;2.58;;;1.08;;
61373;SDS011;47242;48.158;-1.586;2023-05-10T18:20:26;6.00;;;1.23;;
61373;SDS011;47242;48.158;-1.586;2023-05-10T18:22:52;2.67;;;1.00;;
61373;SDS011;47242;48.158;-1.586;2023-05-10T18:25:19;6.35;;;1.30;;
61373;SDS011;47242;48.158;-1.586;2023-05-10T18:27:44;2.95;;;1.15;;
61373;SDS011;47242;48.158;-1.586;2023-05-10T18:30:10;5.93;;;1.50;;
61373;SDS011;47242;48.158;-1.586;2023-05-10T18:32:36;2.67;;;1.20;;
61373;SDS011;47242;48.158;-1.586;2023-05-10T18:35:03;4.50;;;1.83;;
61373;SDS011;47242;48.158;-1.586;2023-05-10T18:37:30;4.18;;;1.00;;
61373;SDS011;47242;48.158;-1.586;2023-05-10T18:39:55;5.88;;;1.20;;
61373;SDS011;47242;48.158;-1.586;2023-05-10T18:42:21;3.53;;;1.00;;
61373;SDS011;47242;48.158;-1.586;2023-05-10T18:44:47;4.85;;;1.73;;
61373;SDS011;47242;48.158;-1.586;2023-05-10T18:47:13;4.85;;;1.20;;
61373;SDS011;47242;48.158;-1.586;2023-05-10T18:49:38;4.05;;;1.40;;
61373;SDS011;47242;48.158;-1.586;2023-05-10T18:52:04;5.50;;;1.17;;
61373;SDS011;47242;48.158;-1.586;2023-05-10T18:54:30;7.95;;;1.40;;
61373;SDS011;47242;48.158;-1.586;2023-05-10T18:56:55;3.65;;;1.45;;
61373;SDS011;47242;48.158;-1.586;2023-05-10T18:59:22;4.38;;;1.55;;
61373;SDS011;47242;48.158;-1.586;2023-05-10T19:01:49;3.33;;;1.13;;
61373;SDS011;47242;48.158;-1.586;2023-05-10T19:04:14;8.70;;;1.48;;
61373;SDS011;47242;48.158;-1.586;2023-05-10T19:06:40;8.48;;;1.67;;
61373;SDS011;47242;48.158;-1.586;2023-05-10T19:09:06;4.68;;;1.50;;
61373;SDS011;47242;48.158;-1.586;2023-05-10T19:11:32;2.78;;;1.30;;
61373;SDS011;47242;48.158;-1.586;2023-05-10T19:13:58;4.55;;;1.73;;